sensor_id;sensor_type;location;lat;lon;timestamp;P1;durP1;ratioP1;P2;durP2;ratioP2
54923;SDS011;40825;52.270;20.984;2024-02-21T00:01:41;11.10;;;2.90;;
54923;SDS011;40825;52.270;20.984;2024-02-21T00:04:07;10.00;;;3.00;;
54923;SDS011;40825;52.270;20.984;2024-02-21T00:06:32;10.40;;;3.10;;
54923;SDS011;40825;52.270;20.984;2024-02-21T00:08:58;12.10;;;3.50;;
54923;SDS011;40825;52.270;20.984;2024-02-21T00:11:23;12.60;;;3.40;;
54923;SDS011;40825;52.270;20.984;2024-02-21T00:13:49;7.80;;;2.90;;
54923;SDS011;40825;52.270;20.984;2024-02-21T00:16:16;9.90;;;3.20;;
54923;SDS011;40825;52.270;20.984;2024-02-21T00:18:42;11.10;;;3.00;;
54923;SDS011;40825;52.270;20.984;2024-02-21T00:21:07;12.10;;;3.20;;
54923;SDS011;40825;52.270;20.984;2024-02-21T00:23:33;9.40;;;2.90;;
54923;SDS011;40825;52.270;20.984;2024-02-21T00:25:58;13.80;;;3.30;;
54923;SDS011;40825;52.270;20.984;2024-02-21T00:28:23;9.70;;;3.20;;
54923;SDS011;40825;52.270;20.984;2024-02-21T00:30:49;16.60;;;3.80;;
54923;SDS011;40825;52.270;20.984;2024-02-21T00:33:16;11.90;;;3.50;;
54923;SDS011;40825;52.270;20.984;2024-02-21T00:35:42;13.60;;;3.20;;
54923;SDS011;40825;52.270;20.984;2024-02-21T00:38:07;12.20;;;3.00;;
54923;SDS011;40825;52.270;20.984;2024-02-21T00:40:33;10.90;;;3.40;;
54923;SDS011;40825;52.270;20.984;2024-02-21T00:43:00;12.80;;;3.00;;
54923;SDS011;40825;52.270;20.984;2024-02-21T00:45:26;12.50;;;4.00;;
54923;SDS011;40825;52.270;20.984;2024-02-21T00:47:51;12.00;;;2.90;;
54923;SDS011;40825;52.270;20.984;2024-02-21T00:50:17;13.00;;;3.10;;
54923;SDS011;40825;52.270;20.984;2024-02-21T00:52:42;13.60;;;3.60;;
54923;SDS011;40825;52.270;20.984;2024-02-21T00:55:08;9.70;;;2.90;;
54923;SDS011;40825;52.270;20.984;2024-02-21T00:57:34;11.80;;;3.30;;
54923;SDS011;40825;52.270;20.984;2024-02-21T01:00:00;15.50;;;3.20;;
54923;SDS011;40825;52.270;20.984;2024-02-21T01:02:27;12.10;;;3.30;;
54923;SDS011;40825;52.270;20.984;2024-02-21T01:04:52;14.10;;;3.90;;
54923;SDS011;40825;52.270;20.984;2024-02-21T01:07:18;11.00;;;3.70;;
54923;SDS011;40825;52.270;20.984;2024-02-21T01:09:43;11.60;;;3.80;;
54923;SDS011;40825;52.270;20.984;2024-02-21T01:12:09;14.20;;;2.90;;
54923;SDS011;40825;52.270;20.984;2024-02-21T01:14:34;12.20;;;3.20;;
54923;SDS011;40825;52.270;20.984;2024-02-21T01:16:59;11.30;;;3.40;;
54923;SDS011;40825;52.270;20.984;2024-02-21T01:19:25;11.10;;;3.60;;
54923;SDS011;40825;52.270;20.984;2024-02-21T01:21:51;8.30;;;3.70;;
54923;SDS011;40825;52.270;20.984;2024-02-21T01:24:16;11.00;;;3.20;;
54923;SDS011;40825;52.270;20.984;2024-02-21T01:26:42;11.30;;;3.70;;
54923;SDS011;40825;52.270;20.984;2024-02-21T01:29:07;12.00;;;3.70;;
54923;SDS011;40825;52.270;20.984;2024-02-21T01:31:32;13.90;;;3.80;;
54923;SDS011;40825;52.270;20.984;2024-02-21T01:33:58;12.60;;;4.20;;
54923;SDS011;40825;52.270;20.984;2024-02-21T01:36:23;14.70;;;4.80;;
54923;SDS011;40825;52.270;20.984;2024-02-21T01:38:49;12.20;;;3.80;;
54923;SDS011;40825;52.270;20.984;2024-02-21T01:41:14;15.60;;;4.20;;
54923;SDS011;40825;52.270;20.984;2024-02-21T01:43:41;14.20;;;4.30;;
54923;SDS011;40825;52.270;20.984;2024-02-21T01:46:07;15.90;;;4.90;;
54923;SDS011;40825;52.270;20.984;2024-02-21T01:48:33;15.10;;;4.40;;
54923;SDS011;40825;52.270;20.984;2024-02-21T01:50:59;15.20;;;5.40;;
54923;SDS011;40825;52.270;20.984;2024-02-21T01:53:44;13.40;;;4.40;;
54923;SDS011;40825;52.270;20.984;2024-02-21T01:56:10;13.60;;;4.30;;
54923;SDS011;40825;52.270;20.984;2024-02-21T01:58:38;14.00;;;4.40;;
54923;SDS011;40825;52.270;20.984;2024-02-21T02:01:06;11.70;;;4.70;;
54923;SDS011;40825;52.270;20.984;2024-02-21T02:03:32;11.50;;;4.30;;
54923;SDS011;40825;52.270;20.984;2024-02-21T02:08:26;14.90;;;4.90;;
54923;SDS011;40825;52.270;20.984;2024-02-21T02:10:52;10.90;;;4.60;;
54923;SDS011;40825;52.270;20.984;2024-02-21T02:13:17;11.40;;;4.50;;
54923;SDS011;40825;52.270;20.984;2024-02-21T02:15:44;12.40;;;4.90;;
54923;SDS011;40825;52.270;20.984;2024-02-21T02:18:11;15.10;;;6.40;;
54923;SDS011;40825;52.270;20.984;2024-02-21T02:20:38;17.40;;;5.50;;
54923;SDS011;40825;52.270;20.984;2024-02-21T02:23:10;17.40;;;5.60;;
54923;SDS011;40825;52.270;20.984;2024-02-21T02:25:59;13.60;;;5.10;;
54923;SDS011;40825;52.270;20.984;2024-02-21T02:28:26;17.70;;;6.10;;
54923;SDS011;40825;52.270;20.984;2024-02-21T02:30:52;16.20;;;5.60;;
54923;SDS011;40825;52.270;20.984;2024-02-21T02:33:18;15.70;;;6.00;;
54923;SDS011;40825;52.270;20.984;2024-02-21T02:35:43;15.60;;;5.90;;
54923;SDS011;40825;52.270;20.984;2024-02-21T02:38:09;16.20;;;5.40;;
54923;SDS011;40825;52.270;20.984;2024-02-21T02:40:37;14.80;;;5.60;;
54923;SDS011;40825;52.270;20.984;2024-02-21T02:43:03;14.40;;;5.40;;
54923;SDS011;40825;52.270;20.984;2024-02-21T02:45:29;17.60;;;5.90;;
54923;SDS011;40825;52.270;20.984;2024-02-21T02:47:55;16.00;;;6.20;;
54923;SDS011;40825;52.270;20.984;2024-02-21T02:50:25;15.60;;;5.60;;
54923;SDS011;40825;52.270;20.984;2024-02-21T02:52:52;19.50;;;5.90;;
54923;SDS011;40825;52.270;20.984;2024-02-21T02:55:18;14.60;;;4.70;;
54923;SDS011;40825;52.270;20.984;2024-02-21T02:57:44;16.90;;;5.40;;
54923;SDS011;40825;52.270;20.984;2024-02-21T03:00:12;16.20;;;5.40;;
54923;SDS011;40825;52.270;20.984;2024-02-21T03:02:39;15.60;;;5.40;;
54923;SDS011;40825;52.270;20.984;2024-02-21T03:07:42;14.70;;;5.50;;
54923;SDS011;40825;52.270;20.984;2024-02-21T03:10:09;13.80;;;5.40;;
54923;SDS011;40825;52.270;20.984;2024-02-21T03:12:35;15.80;;;7.90;;
54923;SDS011;40825;52.270;20.984;2024-02-21T03:15:01;18.30;;;5.70;;
54923;SDS011;40825;52.270;20.984;2024-02-21T03:17:27;15.00;;;5.20;;
54923;SDS011;40825;52.270;20.984;2024-02-21T03:19:53;14.00;;;6.50;;
54923;SDS011;40825;52.270;20.984;2024-02-21T03:22:20;17.00;;;6.30;;
54923;SDS011;40825;52.270;20.984;2024-02-21T03:24:46;19.80;;;5.90;;
54923;SDS011;40825;52.270;20.984;2024-02-21T03:27:12;17.10;;;6.70;;
54923;SDS011;40825;52.270;20.984;2024-02-21T03:29:37;13.50;;;5.90;;
54923;SDS011;40825;52.270;20.984;2024-02-21T03:32:03;18.70;;;5.70;;
54923;SDS011;40825;52.270;20.984;2024-02-21T03:34:28;17.70;;;5.80;;
54923;SDS011;40825;52.270;20.984;2024-02-21T03:36:54;17.10;;;6.30;;
54923;SDS011;40825;52.270;20.984;2024-02-21T03:39:19;19.10;;;6.10;;
54923;SDS011;40825;52.270;20.984;2024-02-21T03:41:46;17.20;;;5.70;;
54923;SDS011;40825;52.270;20.984;2024-02-21T03:44:12;14.10;;;5.50;;
54923;SDS011;40825;52.270;20.984;2024-02-21T03:46:37;14.40;;;6.20;;
54923;SDS011;40825;52.270;20.984;2024-02-21T03:49:03;25.30;;;10.50;;
54923;SDS011;40825;52.270;20.984;2024-02-21T03:51:28;14.00;;;5.50;;
54923;SDS011;40825;52.270;20.984;2024-02-21T03:53:53;17.70;;;6.30;;
54923;SDS011;40825;52.270;20.984;2024-02-21T03:56:19;13.80;;;4.80;;
54923;SDS011;40825;52.270;20.984;2024-02-21T03:58:44;12.80;;;5.00;;
54923;SDS011;40825;52.270;20.984;2024-02-21T04:01:10;14.00;;;5.70;;
54923;SDS011;40825;52.270;20.984;2024-02-21T04:03:35;14.00;;;4.70;;
54923;SDS011;40825;52.270;20.984;2024-02-21T04:06:01;15.60;;;5.10;;
54923;SDS011;40825;52.270;20.984;2024-02-21T04:08:26;15.70;;;5.00;;
54923;SDS011;40825;52.270;20.984;2024-02-21T04:10:52;15.60;;;5.30;;
54923;SDS011;40825;52.270;20.984;2024-02-21T04:13:17;18.10;;;5.80;;
54923;SDS011;40825;52.270;20.984;2024-02-21T04:15:43;17.10;;;6.40;;
54923;SDS011;40825;52.270;20.984;2024-02-21T04:18:08;15.80;;;6.40;;
54923;SDS011;40825;52.270;20.984;2024-02-21T04:20:34;13.70;;;6.00;;
54923;SDS011;40825;52.270;20.984;2024-02-21T04:23:00;17.30;;;6.60;;
54923;SDS011;40825;52.270;20.984;2024-02-21T04:25:26;23.10;;;7.10;;
54923;SDS011;40825;52.270;20.984;2024-02-21T04:27:52;15.90;;;5.50;;
54923;SDS011;40825;52.270;20.984;2024-02-21T04:30:17;15.90;;;6.10;;
54923;SDS011;40825;52.270;20.984;2024-02-21T04:32:43;20.70;;;6.70;;
54923;SDS011;40825;52.270;20.984;2024-02-21T04:35:09;17.50;;;7.80;;
54923;SDS011;40825;52.270;20.984;2024-02-21T04:37:34;16.80;;;6.70;;
54923;SDS011;40825;52.270;20.984;2024-02-21T04:40:00;22.00;;;7.10;;
54923;SDS011;40825;52.270;20.984;2024-02-21T04:42:26;19.00;;;7.20;;
54923;SDS011;40825;52.270;20.984;2024-02-21T04:44:51;20.10;;;6.90;;
54923;SDS011;40825;52.270;20.984;2024-02-21T04:47:17;17.90;;;7.10;;
54923;SDS011;40825;52.270;20.984;2024-02-21T04:49:45;20.00;;;7.60;;
54923;SDS011;40825;52.270;20.984;2024-02-21T04:52:11;25.00;;;7.30;;
54923;SDS011;40825;52.270;20.984;2024-02-21T04:54:37;20.90;;;7.30;;
54923;SDS011;40825;52.270;20.984;2024-02-21T04:57:02;22.30;;;8.10;;
54923;SDS011;40825;52.270;20.984;2024-02-21T04:59:28;19.10;;;7.70;;
54923;SDS011;40825;52.270;20.984;2024-02-21T05:01:54;19.90;;;8.10;;
54923;SDS011;40825;52.270;20.984;2024-02-21T05:04:20;25.40;;;8.10;;
54923;SDS011;40825;52.270;20.984;2024-02-21T05:06:45;20.10;;;7.60;;
54923;SDS011;40825;52.270;20.984;2024-02-21T05:09:11;26.30;;;9.60;;
54923;SDS011;40825;52.270;20.984;2024-02-21T05:11:36;24.10;;;9.60;;
54923;SDS011;40825;52.270;20.984;2024-02-21T05:14:05;26.40;;;9.70;;
54923;SDS011;40825;52.270;20.984;2024-02-21T05:16:31;23.10;;;8.40;;
54923;SDS011;40825;52.270;20.984;2024-02-21T05:18:57;17.90;;;8.70;;
54923;SDS011;40825;52.270;20.984;2024-02-21T05:21:23;24.10;;;9.10;;
54923;SDS011;40825;52.270;20.984;2024-02-21T05:23:52;21.60;;;9.50;;
54923;SDS011;40825;52.270;20.984;2024-02-21T05:26:21;24.10;;;9.20;;
54923;SDS011;40825;52.270;20.984;2024-02-21T05:28:47;22.30;;;8.10;;
54923;SDS011;40825;52.270;20.984;2024-02-21T05:31:13;24.30;;;8.90;;
54923;SDS011;40825;52.270;20.984;2024-02-21T05:33:39;21.40;;;8.80;;
54923;SDS011;40825;52.270;20.984;2024-02-21T05:36:05;21.80;;;9.30;;
54923;SDS011;40825;52.270;20.984;2024-02-21T05:38:30;23.10;;;8.70;;
54923;SDS011;40825;52.270;20.984;2024-02-21T05:40:56;20.60;;;9.10;;
54923;SDS011;40825;52.270;20.984;2024-02-21T05:43:22;19.00;;;9.00;;
54923;SDS011;40825;52.270;20.984;2024-02-21T05:45:47;20.80;;;10.00;;
54923;SDS011;40825;52.270;20.984;2024-02-21T05:48:13;21.90;;;9.10;;
54923;SDS011;40825;52.270;20.984;2024-02-21T05:50:39;20.60;;;9.10;;
54923;SDS011;40825;52.270;20.984;2024-02-21T05:53:04;25.60;;;9.40;;
54923;SDS011;40825;52.270;20.984;2024-02-21T05:55:30;22.00;;;9.40;;
54923;SDS011;40825;52.270;20.984;2024-02-21T05:57:55;21.90;;;9.40;;
54923;SDS011;40825;52.270;20.984;2024-02-21T06:00:21;26.10;;;9.00;;
54923;SDS011;40825;52.270;20.984;2024-02-21T06:02:47;19.50;;;8.50;;
54923;SDS011;40825;52.270;20.984;2024-02-21T06:05:12;23.40;;;9.30;;
54923;SDS011;40825;52.270;20.984;2024-02-21T06:07:38;23.40;;;8.50;;
54923;SDS011;40825;52.270;20.984;2024-02-21T06:10:04;26.30;;;8.90;;
54923;SDS011;40825;52.270;20.984;2024-02-21T06:12:31;24.90;;;10.10;;
54923;SDS011;40825;52.270;20.984;2024-02-21T06:14:57;20.30;;;9.60;;
54923;SDS011;40825;52.270;20.984;2024-02-21T06:17:22;22.60;;;9.90;;
54923;SDS011;40825;52.270;20.984;2024-02-21T06:19:48;23.70;;;9.60;;
54923;SDS011;40825;52.270;20.984;2024-02-21T06:22:13;24.20;;;9.50;;
54923;SDS011;40825;52.270;20.984;2024-02-21T06:24:39;24.60;;;10.30;;
54923;SDS011;40825;52.270;20.984;2024-02-21T06:27:04;21.70;;;10.10;;
54923;SDS011;40825;52.270;20.984;2024-02-21T06:29:33;25.10;;;10.80;;
54923;SDS011;40825;52.270;20.984;2024-02-21T06:31:59;21.80;;;9.60;;
54923;SDS011;40825;52.270;20.984;2024-02-21T06:34:25;23.70;;;10.20;;
54923;SDS011;40825;52.270;20.984;2024-02-21T06:36:51;25.70;;;9.10;;
54923;SDS011;40825;52.270;20.984;2024-02-21T06:39:16;19.50;;;9.20;;
54923;SDS011;40825;52.270;20.984;2024-02-21T06:41:42;27.00;;;9.80;;
54923;SDS011;40825;52.270;20.984;2024-02-21T06:44:08;23.90;;;11.00;;
54923;SDS011;40825;52.270;20.984;2024-02-21T06:46:33;23.60;;;9.20;;
54923;SDS011;40825;52.270;20.984;2024-02-21T06:48:59;24.00;;;10.00;;
54923;SDS011;40825;52.270;20.984;2024-02-21T06:51:26;26.30;;;10.30;;
54923;SDS011;40825;52.270;20.984;2024-02-21T06:53:52;23.90;;;9.30;;
54923;SDS011;40825;52.270;20.984;2024-02-21T06:56:22;27.10;;;10.70;;
54923;SDS011;40825;52.270;20.984;2024-02-21T06:58:54;28.50;;;10.80;;
54923;SDS011;40825;52.270;20.984;2024-02-21T07:01:20;25.40;;;10.00;;
54923;SDS011;40825;52.270;20.984;2024-02-21T07:03:46;24.00;;;10.20;;
54923;SDS011;40825;52.270;20.984;2024-02-21T07:06:11;28.40;;;9.90;;
54923;SDS011;40825;52.270;20.984;2024-02-21T07:08:37;27.70;;;10.10;;
54923;SDS011;40825;52.270;20.984;2024-02-21T07:11:04;29.90;;;10.60;;
54923;SDS011;40825;52.270;20.984;2024-02-21T07:13:30;30.20;;;10.50;;
54923;SDS011;40825;52.270;20.984;2024-02-21T07:15:55;25.70;;;10.00;;
54923;SDS011;40825;52.270;20.984;2024-02-21T07:18:21;28.10;;;9.70;;
54923;SDS011;40825;52.270;20.984;2024-02-21T07:20:46;22.60;;;9.10;;
54923;SDS011;40825;52.270;20.984;2024-02-21T07:23:12;21.30;;;8.50;;
54923;SDS011;40825;52.270;20.984;2024-02-21T07:25:38;24.20;;;9.80;;
54923;SDS011;40825;52.270;20.984;2024-02-21T07:28:05;24.70;;;10.10;;
54923;SDS011;40825;52.270;20.984;2024-02-21T07:30:31;31.00;;;10.10;;
54923;SDS011;40825;52.270;20.984;2024-02-21T07:32:57;24.60;;;10.60;;
54923;SDS011;40825;52.270;20.984;2024-02-21T07:35:22;31.20;;;10.10;;
54923;SDS011;40825;52.270;20.984;2024-02-21T07:37:48;26.10;;;9.90;;
54923;SDS011;40825;52.270;20.984;2024-02-21T07:40:14;29.90;;;10.00;;
54923;SDS011;40825;52.270;20.984;2024-02-21T07:42:40;26.70;;;9.90;;
54923;SDS011;40825;52.270;20.984;2024-02-21T07:45:07;24.80;;;11.10;;
54923;SDS011;40825;52.270;20.984;2024-02-21T07:47:33;27.60;;;10.20;;
54923;SDS011;40825;52.270;20.984;2024-02-21T07:49:58;27.40;;;9.90;;
54923;SDS011;40825;52.270;20.984;2024-02-21T07:52:23;32.00;;;9.60;;
54923;SDS011;40825;52.270;20.984;2024-02-21T07:54:50;23.90;;;9.20;;
54923;SDS011;40825;52.270;20.984;2024-02-21T07:57:16;28.00;;;10.10;;
54923;SDS011;40825;52.270;20.984;2024-02-21T07:59:41;27.40;;;10.00;;
54923;SDS011;40825;52.270;20.984;2024-02-21T08:02:07;28.80;;;10.50;;
54923;SDS011;40825;52.270;20.984;2024-02-21T08:04:33;26.10;;;11.20;;
54923;SDS011;40825;52.270;20.984;2024-02-21T08:06:59;29.50;;;11.20;;
54923;SDS011;40825;52.270;20.984;2024-02-21T08:09:27;27.60;;;10.70;;
54923;SDS011;40825;52.270;20.984;2024-02-21T08:11:54;26.90;;;9.80;;
54923;SDS011;40825;52.270;20.984;2024-02-21T08:14:20;30.80;;;11.70;;
54923;SDS011;40825;52.270;20.984;2024-02-21T08:16:46;28.00;;;11.10;;
54923;SDS011;40825;52.270;20.984;2024-02-21T08:19:11;29.80;;;11.20;;
54923;SDS011;40825;52.270;20.984;2024-02-21T08:21:37;26.00;;;10.00;;
54923;SDS011;40825;52.270;20.984;2024-02-21T08:24:02;27.80;;;10.30;;
54923;SDS011;40825;52.270;20.984;2024-02-21T08:26:28;27.00;;;9.80;;
54923;SDS011;40825;52.270;20.984;2024-02-21T08:28:58;26.10;;;10.20;;
54923;SDS011;40825;52.270;20.984;2024-02-21T08:31:25;22.90;;;10.50;;
54923;SDS011;40825;52.270;20.984;2024-02-21T08:33:59;33.00;;;11.40;;
54923;SDS011;40825;52.270;20.984;2024-02-21T08:36:28;29.30;;;10.00;;
54923;SDS011;40825;52.270;20.984;2024-02-21T08:39:02;29.10;;;10.40;;
54923;SDS011;40825;52.270;20.984;2024-02-21T08:41:31;29.00;;;11.20;;
54923;SDS011;40825;52.270;20.984;2024-02-21T08:43:57;27.40;;;9.80;;
54923;SDS011;40825;52.270;20.984;2024-02-21T08:46:23;24.00;;;10.50;;
54923;SDS011;40825;52.270;20.984;2024-02-21T08:48:50;30.20;;;10.30;;
54923;SDS011;40825;52.270;20.984;2024-02-21T08:51:16;25.30;;;10.00;;
54923;SDS011;40825;52.270;20.984;2024-02-21T08:53:43;28.10;;;11.40;;
54923;SDS011;40825;52.270;20.984;2024-02-21T08:56:09;33.90;;;12.40;;
54923;SDS011;40825;52.270;20.984;2024-02-21T08:58:35;28.30;;;11.00;;
54923;SDS011;40825;52.270;20.984;2024-02-21T09:01:05;28.80;;;11.70;;
54923;SDS011;40825;52.270;20.984;2024-02-21T09:03:31;28.60;;;10.90;;
54923;SDS011;40825;52.270;20.984;2024-02-21T09:05:57;30.20;;;11.00;;
54923;SDS011;40825;52.270;20.984;2024-02-21T09:08:24;31.60;;;11.00;;
54923;SDS011;40825;52.270;20.984;2024-02-21T09:10:50;25.00;;;11.10;;
54923;SDS011;40825;52.270;20.984;2024-02-21T09:13:15;30.20;;;11.50;;
54923;SDS011;40825;52.270;20.984;2024-02-21T09:15:42;27.10;;;10.10;;
54923;SDS011;40825;52.270;20.984;2024-02-21T09:18:08;31.30;;;11.70;;
54923;SDS011;40825;52.270;20.984;2024-02-21T09:20:33;28.40;;;10.50;;
54923;SDS011;40825;52.270;20.984;2024-02-21T09:22:59;30.70;;;10.20;;
54923;SDS011;40825;52.270;20.984;2024-02-21T09:25:24;28.90;;;10.70;;
54923;SDS011;40825;52.270;20.984;2024-02-21T09:27:50;24.70;;;10.40;;
54923;SDS011;40825;52.270;20.984;2024-02-21T09:30:17;28.10;;;10.20;;
54923;SDS011;40825;52.270;20.984;2024-02-21T09:32:44;31.00;;;11.30;;
54923;SDS011;40825;52.270;20.984;2024-02-21T09:35:09;27.90;;;10.00;;
54923;SDS011;40825;52.270;20.984;2024-02-21T09:37:35;27.70;;;10.50;;
54923;SDS011;40825;52.270;20.984;2024-02-21T09:40:01;23.40;;;9.80;;
54923;SDS011;40825;52.270;20.984;2024-02-21T09:42:34;25.70;;;10.80;;
54923;SDS011;40825;52.270;20.984;2024-02-21T09:45:03;29.90;;;9.60;;
54923;SDS011;40825;52.270;20.984;2024-02-21T09:47:50;24.70;;;10.20;;
54923;SDS011;40825;52.270;20.984;2024-02-21T09:50:20;21.60;;;8.50;;
54923;SDS011;40825;52.270;20.984;2024-02-21T09:52:48;26.80;;;9.30;;
54923;SDS011;40825;52.270;20.984;2024-02-21T09:57:43;19.70;;;7.30;;
54923;SDS011;40825;52.270;20.984;2024-02-21T10:00:09;21.50;;;8.80;;
54923;SDS011;40825;52.270;20.984;2024-02-21T10:02:35;23.70;;;7.30;;
54923;SDS011;40825;52.270;20.984;2024-02-21T10:05:02;19.20;;;7.60;;
54923;SDS011;40825;52.270;20.984;2024-02-21T10:07:30;22.60;;;7.40;;
54923;SDS011;40825;52.270;20.984;2024-02-21T10:10:02;20.60;;;6.90;;
54923;SDS011;40825;52.270;20.984;2024-02-21T10:12:28;20.60;;;7.30;;
54923;SDS011;40825;52.270;20.984;2024-02-21T10:15:04;21.00;;;7.30;;
54923;SDS011;40825;52.270;20.984;2024-02-21T10:17:34;16.70;;;5.80;;
54923;SDS011;40825;52.270;20.984;2024-02-21T10:20:09;15.50;;;5.70;;
54923;SDS011;40825;52.270;20.984;2024-02-21T10:22:35;20.10;;;6.80;;
54923;SDS011;40825;52.270;20.984;2024-02-21T10:25:11;17.40;;;6.50;;
54923;SDS011;40825;52.270;20.984;2024-02-21T10:27:40;20.70;;;6.70;;
54923;SDS011;40825;52.270;20.984;2024-02-21T10:30:13;19.00;;;6.90;;
54923;SDS011;40825;52.270;20.984;2024-02-21T10:32:55;20.00;;;6.10;;
54923;SDS011;40825;52.270;20.984;2024-02-21T10:35:33;17.70;;;7.10;;
54923;SDS011;40825;52.270;20.984;2024-02-21T10:37:59;20.60;;;7.00;;
54923;SDS011;40825;52.270;20.984;2024-02-21T10:40:26;22.00;;;7.60;;
54923;SDS011;40825;52.270;20.984;2024-02-21T10:42:59;23.40;;;7.50;;
54923;SDS011;40825;52.270;20.984;2024-02-21T10:45:35;18.80;;;7.10;;
54923;SDS011;40825;52.270;20.984;2024-02-21T10:56:21;21.30;;;9.10;;
54923;SDS011;40825;52.270;20.984;2024-02-21T10:58:50;22.40;;;9.30;;
54923;SDS011;40825;52.270;20.984;2024-02-21T11:01:18;21.80;;;9.40;;
54923;SDS011;40825;52.270;20.984;2024-02-21T11:03:47;27.00;;;9.10;;
54923;SDS011;40825;52.270;20.984;2024-02-21T11:06:15;22.00;;;9.40;;
54923;SDS011;40825;52.270;20.984;2024-02-21T11:08:43;18.30;;;8.00;;
54923;SDS011;40825;52.270;20.984;2024-02-21T11:11:11;23.80;;;9.20;;
54923;SDS011;40825;52.270;20.984;2024-02-21T11:13:42;22.20;;;8.90;;
54923;SDS011;40825;52.270;20.984;2024-02-21T11:16:09;25.00;;;8.50;;
54923;SDS011;40825;52.270;20.984;2024-02-21T11:18:38;25.50;;;9.10;;
54923;SDS011;40825;52.270;20.984;2024-02-21T11:21:04;25.70;;;10.50;;
54923;SDS011;40825;52.270;20.984;2024-02-21T11:23:30;23.00;;;8.90;;
54923;SDS011;40825;52.270;20.984;2024-02-21T11:26:09;24.30;;;9.90;;
54923;SDS011;40825;52.270;20.984;2024-02-21T11:28:35;24.70;;;10.40;;
54923;SDS011;40825;52.270;20.984;2024-02-21T11:31:09;22.40;;;9.60;;
54923;SDS011;40825;52.270;20.984;2024-02-21T11:33:39;21.30;;;10.00;;
54923;SDS011;40825;52.270;20.984;2024-02-21T11:36:06;28.60;;;10.30;;
54923;SDS011;40825;52.270;20.984;2024-02-21T11:38:31;25.90;;;10.90;;
54923;SDS011;40825;52.270;20.984;2024-02-21T11:40:57;27.10;;;10.30;;
54923;SDS011;40825;52.270;20.984;2024-02-21T11:43:23;24.50;;;9.50;;
54923;SDS011;40825;52.270;20.984;2024-02-21T11:45:49;21.40;;;10.40;;
54923;SDS011;40825;52.270;20.984;2024-02-21T11:48:14;26.10;;;10.50;;
54923;SDS011;40825;52.270;20.984;2024-02-21T11:50:40;23.50;;;10.60;;
54923;SDS011;40825;52.270;20.984;2024-02-21T11:53:05;24.40;;;9.80;;
54923;SDS011;40825;52.270;20.984;2024-02-21T11:55:31;23.40;;;10.30;;
54923;SDS011;40825;52.270;20.984;2024-02-21T11:57:56;26.40;;;10.80;;
54923;SDS011;40825;52.270;20.984;2024-02-21T12:00:22;24.00;;;10.70;;
54923;SDS011;40825;52.270;20.984;2024-02-21T12:02:51;29.70;;;11.00;;
54923;SDS011;40825;52.270;20.984;2024-02-21T12:05:18;26.90;;;10.30;;
54923;SDS011;40825;52.270;20.984;2024-02-21T12:07:44;24.40;;;10.40;;
54923;SDS011;40825;52.270;20.984;2024-02-21T12:10:11;28.40;;;10.20;;
54923;SDS011;40825;52.270;20.984;2024-02-21T12:12:37;22.30;;;9.80;;
54923;SDS011;40825;52.270;20.984;2024-02-21T12:15:04;24.00;;;10.40;;
54923;SDS011;40825;52.270;20.984;2024-02-21T12:17:32;25.60;;;10.10;;
54923;SDS011;40825;52.270;20.984;2024-02-21T12:20:01;27.00;;;10.60;;
54923;SDS011;40825;52.270;20.984;2024-02-21T12:22:52;29.90;;;11.30;;
54923;SDS011;40825;52.270;20.984;2024-02-21T12:25:21;24.30;;;10.50;;
54923;SDS011;40825;52.270;20.984;2024-02-21T12:30:17;25.50;;;10.70;;
54923;SDS011;40825;52.270;20.984;2024-02-21T12:32:43;22.80;;;10.80;;
54923;SDS011;40825;52.270;20.984;2024-02-21T12:35:09;25.90;;;10.30;;
54923;SDS011;40825;52.270;20.984;2024-02-21T12:37:34;24.70;;;10.90;;
54923;SDS011;40825;52.270;20.984;2024-02-21T12:40:00;24.90;;;11.10;;
54923;SDS011;40825;52.270;20.984;2024-02-21T12:42:25;24.70;;;11.40;;
54923;SDS011;40825;52.270;20.984;2024-02-21T12:44:52;24.80;;;10.70;;
54923;SDS011;40825;52.270;20.984;2024-02-21T12:49:48;34.40;;;10.90;;
54923;SDS011;40825;52.270;20.984;2024-02-21T12:52:14;29.90;;;10.90;;
54923;SDS011;40825;52.270;20.984;2024-02-21T12:54:40;27.20;;;11.80;;
54923;SDS011;40825;52.270;20.984;2024-02-21T12:57:05;25.20;;;10.60;;
54923;SDS011;40825;52.270;20.984;2024-02-21T12:59:31;21.60;;;10.40;;
54923;SDS011;40825;52.270;20.984;2024-02-21T13:01:56;26.80;;;11.50;;
54923;SDS011;40825;52.270;20.984;2024-02-21T13:04:22;24.80;;;10.80;;
54923;SDS011;40825;52.270;20.984;2024-02-21T13:06:48;23.10;;;10.40;;
54923;SDS011;40825;52.270;20.984;2024-02-21T13:09:14;32.00;;;11.60;;
54923;SDS011;40825;52.270;20.984;2024-02-21T13:11:40;22.80;;;10.60;;
54923;SDS011;40825;52.270;20.984;2024-02-21T13:14:07;27.50;;;12.60;;
54923;SDS011;40825;52.270;20.984;2024-02-21T13:16:32;23.20;;;10.70;;
54923;SDS011;40825;52.270;20.984;2024-02-21T13:19:08;29.60;;;11.30;;
54923;SDS011;40825;52.270;20.984;2024-02-21T13:21:34;25.50;;;10.20;;
54923;SDS011;40825;52.270;20.984;2024-02-21T13:24:00;23.90;;;10.50;;
54923;SDS011;40825;52.270;20.984;2024-02-21T13:26:26;22.70;;;9.90;;
54923;SDS011;40825;52.270;20.984;2024-02-21T13:28:51;26.10;;;10.60;;
54923;SDS011;40825;52.270;20.984;2024-02-21T13:31:17;25.40;;;10.90;;
54923;SDS011;40825;52.270;20.984;2024-02-21T13:33:43;23.40;;;10.40;;
54923;SDS011;40825;52.270;20.984;2024-02-21T13:36:11;24.90;;;11.20;;
54923;SDS011;40825;52.270;20.984;2024-02-21T13:38:37;23.90;;;10.30;;
54923;SDS011;40825;52.270;20.984;2024-02-21T13:41:06;22.60;;;10.50;;
54923;SDS011;40825;52.270;20.984;2024-02-21T13:43:32;24.50;;;10.00;;
54923;SDS011;40825;52.270;20.984;2024-02-21T13:45:59;22.50;;;10.10;;
54923;SDS011;40825;52.270;20.984;2024-02-21T13:48:26;22.10;;;10.10;;
54923;SDS011;40825;52.270;20.984;2024-02-21T13:50:52;23.70;;;10.50;;
54923;SDS011;40825;52.270;20.984;2024-02-21T13:53:17;21.70;;;9.80;;
54923;SDS011;40825;52.270;20.984;2024-02-21T13:55:44;22.50;;;9.90;;
54923;SDS011;40825;52.270;20.984;2024-02-21T13:58:10;20.50;;;9.10;;
54923;SDS011;40825;52.270;20.984;2024-02-21T14:00:36;21.70;;;8.90;;
54923;SDS011;40825;52.270;20.984;2024-02-21T14:03:01;23.10;;;10.40;;
54923;SDS011;40825;52.270;20.984;2024-02-21T14:05:27;23.80;;;9.30;;
54923;SDS011;40825;52.270;20.984;2024-02-21T14:07:53;21.40;;;9.50;;
54923;SDS011;40825;52.270;20.984;2024-02-21T14:10:20;23.60;;;9.70;;
54923;SDS011;40825;52.270;20.984;2024-02-21T14:12:46;21.40;;;9.10;;
54923;SDS011;40825;52.270;20.984;2024-02-21T14:15:13;21.80;;;9.00;;
54923;SDS011;40825;52.270;20.984;2024-02-21T14:17:39;19.50;;;8.40;;
54923;SDS011;40825;52.270;20.984;2024-02-21T14:20:05;18.90;;;7.80;;
54923;SDS011;40825;52.270;20.984;2024-02-21T14:22:32;22.70;;;9.50;;
54923;SDS011;40825;52.270;20.984;2024-02-21T14:24:59;19.90;;;9.30;;
54923;SDS011;40825;52.270;20.984;2024-02-21T14:27:25;17.80;;;8.20;;
54923;SDS011;40825;52.270;20.984;2024-02-21T14:29:51;24.70;;;8.30;;
54923;SDS011;40825;52.270;20.984;2024-02-21T14:32:16;20.60;;;8.00;;
54923;SDS011;40825;52.270;20.984;2024-02-21T14:34:42;21.40;;;7.20;;
54923;SDS011;40825;52.270;20.984;2024-02-21T14:37:07;19.10;;;8.00;;